Terminal Aerodrome Forecast
Issued by NWS

Home | Current Version | Previous Version | Text Only | Print | Product List | Glossary On
Versions: 1 2 3 4 5 6 7 8 9 10 11 12 13 14 15 16 17 18 19 20 21 22 23 24 25
000
FTUS41 KCLE 220100 AAA
TAFFDY
TAF AMD
KFDY 220131Z 2202/2224 21005KT P6SM VCSH SCT040 OVC120
     FM220400 23005KT P6SM VCSH SCT040 OVC120
      TEMPO 2208/2212 4SM TSRA OVC035CB
     FM221200 24005KT 5SM -SHRA BR VCTS OVC025CB
     FM221500 28005KT P6SM SCT020 OVC035=

USA.gov is the U.S. government's official web portal to all federal, state and local government web resources and services.